createdAt,value
2022-08-28T00:00:15.091Z,5.25
2022-08-28T00:02:42.836Z,5.47
2022-08-28T00:05:11.719Z,6.07
2022-08-28T00:07:39.107Z,5.55
2022-08-28T00:10:07.930Z,5.20
2022-08-28T00:12:36.607Z,5.55
2022-08-28T00:15:09.962Z,5.30
2022-08-28T00:17:40.772Z,5.47
2022-08-28T00:20:10.526Z,4.95
2022-08-28T00:22:38.627Z,5.57
2022-08-28T00:25:11.545Z,5.30
2022-08-28T00:27:55.046Z,4.80
2022-08-28T00:30:22.543Z,5.47
2022-08-28T00:32:49.947Z,6.05
2022-08-28T00:35:18.464Z,6.22
2022-08-28T00:37:46.643Z,5.50
2022-08-28T00:40:28.420Z,5.50
2022-08-28T00:42:58.703Z,6.13
2022-08-28T00:45:26.992Z,5.75
2022-08-28T00:47:54.275Z,6.50
2022-08-28T00:50:25.805Z,5.75
2022-08-28T00:53:02.000Z,5.70
2022-08-28T00:55:29.702Z,6.15
2022-08-28T00:58:00.709Z,6.30
2022-08-28T01:00:35.449Z,6.22
2022-08-28T01:03:05.207Z,6.35
2022-08-28T01:05:34.261Z,5.40
2022-08-28T01:08:02.115Z,5.90
2022-08-28T01:10:32.421Z,5.63
2022-08-28T01:13:00.516Z,5.85
2022-08-28T01:15:36.120Z,5.95
2022-08-28T01:18:08.516Z,5.68
2022-08-28T01:20:38.965Z,6.20
2022-08-28T01:23:44.301Z,6.22
2022-08-28T01:26:11.925Z,6.32
2022-08-28T01:28:40.514Z,6.47
2022-08-28T01:31:11.975Z,6.30
2022-08-28T01:33:40.491Z,6.60
2022-08-28T01:36:12.157Z,5.88
2022-08-28T01:38:40.821Z,6.30
2022-08-28T01:41:08.028Z,6.88
2022-08-28T01:43:35.439Z,5.68
2022-08-28T01:46:05.279Z,5.70
2022-08-28T01:48:36.274Z,5.45
2022-08-28T01:51:05.233Z,5.97
2022-08-28T01:53:33.532Z,5.53
2022-08-28T01:56:04.835Z,5.65
2022-08-28T01:58:37.929Z,6.40
2022-08-28T02:01:20.414Z,5.78
2022-08-28T02:03:48.780Z,6.60
2022-08-28T02:06:17.944Z,6.25
2022-08-28T02:08:45.986Z,5.97
2022-08-28T02:11:13.446Z,6.47
2022-08-28T02:13:40.696Z,6.75
2022-08-28T02:16:10.341Z,7.45
2022-08-28T02:18:38.046Z,5.88
2022-08-28T02:21:06.630Z,7.28
2022-08-28T02:23:33.681Z,7.18
2022-08-28T02:26:01.152Z,8.00
2022-08-28T02:28:28.407Z,7.15
2022-08-28T02:30:55.432Z,6.80
2022-08-28T02:33:22.616Z,6.78
2022-08-28T02:35:49.980Z,7.97
2022-08-28T02:38:17.578Z,6.82
2022-08-28T02:40:45.864Z,8.20
2022-08-28T02:43:13.068Z,7.03
2022-08-28T02:45:40.251Z,7.63
2022-08-28T02:48:12.062Z,6.40
2022-08-28T02:50:44.216Z,6.55
2022-08-28T02:53:12.025Z,6.28
2022-08-28T02:55:39.957Z,7.25
2022-08-28T02:58:09.654Z,6.30
2022-08-28T03:00:37.103Z,6.63
2022-08-28T03:03:04.611Z,6.93
2022-08-28T03:05:31.639Z,6.47
2022-08-28T03:07:58.697Z,6.95
2022-08-28T03:10:25.675Z,7.32
2022-08-28T03:12:53.566Z,7.00
2022-08-28T03:15:21.166Z,6.55
2022-08-28T03:17:48.692Z,6.18
2022-08-28T03:20:17.761Z,6.60
2022-08-28T03:23:03.520Z,6.63
2022-08-28T03:25:31.236Z,6.35
2022-08-28T03:27:58.201Z,6.88
2022-08-28T03:30:25.320Z,5.85
2022-08-28T03:32:52.894Z,6.65
2022-08-28T03:35:20.434Z,6.32
2022-08-28T03:37:47.528Z,6.30
2022-08-28T03:40:15.146Z,6.78
2022-08-28T03:42:42.265Z,6.32
2022-08-28T03:45:18.385Z,7.55
2022-08-28T03:47:45.397Z,6.30
2022-08-28T03:50:13.664Z,6.32
2022-08-28T03:52:41.404Z,6.10
2022-08-28T03:55:11.835Z,6.20
2022-08-28T03:57:40.321Z,6.05
2022-08-28T04:00:13.396Z,6.72
2022-08-28T04:02:42.207Z,5.60
2022-08-28T04:05:10.047Z,6.05
2022-08-28T04:07:37.875Z,6.65
2022-08-28T04:10:05.290Z,6.35
2022-08-28T04:12:35.184Z,5.50
2022-08-28T04:15:05.699Z,6.53
2022-08-28T04:17:34.067Z,6.03
2022-08-28T04:22:30.149Z,6.35
2022-08-28T04:24:56.977Z,6.45
2022-08-28T04:27:23.761Z,6.82
2022-08-28T04:29:50.540Z,6.38
2022-08-28T04:32:18.432Z,6.68
2022-08-28T04:34:45.306Z,6.15
2022-08-28T04:37:12.337Z,6.15
2022-08-28T04:39:39.232Z,6.38
2022-08-28T04:42:06.050Z,6.30
2022-08-28T04:44:33.119Z,5.70
2022-08-28T04:47:00.391Z,5.63
2022-08-28T04:49:28.896Z,5.72
2022-08-28T04:51:56.145Z,5.70
2022-08-28T04:54:23.003Z,5.53
2022-08-28T04:56:49.954Z,6.35
2022-08-28T04:59:16.849Z,5.65
2022-08-28T05:01:43.817Z,5.95
2022-08-28T05:04:11.654Z,5.55
2022-08-28T05:06:46.626Z,5.90
2022-08-28T05:09:16.186Z,5.78
2022-08-28T05:11:44.261Z,5.57
2022-08-28T05:14:15.969Z,5.78
2022-08-28T05:16:48.447Z,5.68
2022-08-28T05:19:17.603Z,5.72
2022-08-28T05:21:44.556Z,5.10
2022-08-28T05:24:11.594Z,5.53
2022-08-28T05:26:39.004Z,5.32
2022-08-28T05:29:07.990Z,5.43
2022-08-28T05:31:35.360Z,5.22
2022-08-28T05:34:04.454Z,4.93
2022-08-28T05:36:35.974Z,5.68
2022-08-28T05:39:06.821Z,5.03
2022-08-28T05:41:33.984Z,4.85
2022-08-28T05:44:04.787Z,4.72
2022-08-28T05:46:32.430Z,4.93
2022-08-28T05:49:05.627Z,5.53
2022-08-28T05:51:35.657Z,5.72
2022-08-28T05:54:03.685Z,5.00
2022-08-28T05:56:34.369Z,4.93
2022-08-28T05:59:02.352Z,5.47
2022-08-28T06:01:34.966Z,4.88
2022-08-28T06:04:08.631Z,5.00
2022-08-28T06:06:37.185Z,5.85
2022-08-28T06:09:13.994Z,4.07
2022-08-28T06:11:44.587Z,5.13
2022-08-28T06:14:15.753Z,4.50
2022-08-28T06:16:45.732Z,4.85
2022-08-28T06:19:13.999Z,4.95
2022-08-28T06:21:41.663Z,4.38
2022-08-28T06:24:10.255Z,4.60
2022-08-28T06:26:38.476Z,4.70
2022-08-28T06:29:09.792Z,4.35
2022-08-28T06:31:36.894Z,4.22
2022-08-28T06:34:04.515Z,3.90
2022-08-28T06:36:34.472Z,4.80
2022-08-28T06:39:04.135Z,4.13
2022-08-28T06:41:33.285Z,4.47
2022-08-28T06:44:00.503Z,4.72
2022-08-28T06:46:30.343Z,3.95
2022-08-28T06:48:57.163Z,4.43
2022-08-28T06:51:25.006Z,3.60
2022-08-28T06:53:52.439Z,3.78
2022-08-28T06:56:26.102Z,4.15
2022-08-28T06:58:55.711Z,4.45
2022-08-28T07:01:35.196Z,2.95
2022-08-28T07:04:06.172Z,3.70
2022-08-28T07:06:35.617Z,4.15
2022-08-28T07:09:08.023Z,3.53
2022-08-28T07:11:36.052Z,3.22
2022-08-28T07:14:04.137Z,3.75
2022-08-28T07:16:34.802Z,2.83
2022-08-28T07:19:04.813Z,3.42
2022-08-28T07:21:38.336Z,3.38
2022-08-28T07:24:07.207Z,3.22
2022-08-28T07:26:34.967Z,3.50
2022-08-28T07:29:10.026Z,2.80
2022-08-28T07:31:40.831Z,3.33
2022-08-28T07:34:09.628Z,3.70
2022-08-28T07:36:36.557Z,3.17
2022-08-28T07:39:05.193Z,2.63
2022-08-28T07:41:33.994Z,2.67
2022-08-28T07:44:19.721Z,2.75
2022-08-28T07:46:46.579Z,2.83
2022-08-28T07:49:17.091Z,3.03
2022-08-28T07:51:46.702Z,2.60
2022-08-28T07:54:17.707Z,3.55
2022-08-28T07:56:45.189Z,3.05
2022-08-28T07:59:16.629Z,3.08
2022-08-28T08:01:48.994Z,3.42
2022-08-28T08:04:17.705Z,2.95
2022-08-28T08:06:45.419Z,2.42
2022-08-28T08:09:15.159Z,2.67
2022-08-28T08:11:43.267Z,3.10
2022-08-28T08:14:10.946Z,2.92
2022-08-28T08:16:43.630Z,2.55
2022-08-28T08:19:14.615Z,3.28
2022-08-28T08:21:43.556Z,3.10
2022-08-28T08:24:12.110Z,2.92
2022-08-28T08:26:55.238Z,3.05
2022-08-28T08:29:28.695Z,2.65
2022-08-28T08:31:58.218Z,2.88
2022-08-28T08:34:28.776Z,3.17
2022-08-28T08:36:55.980Z,2.60
2022-08-28T08:39:22.898Z,3.10
2022-08-28T08:41:54.133Z,3.00
2022-08-28T08:44:34.063Z,2.88
2022-08-28T08:47:22.943Z,2.58
2022-08-28T08:50:05.914Z,2.55
2022-08-28T08:52:44.861Z,2.55
2022-08-28T08:55:23.401Z,3.08
2022-08-28T08:58:02.168Z,2.88
2022-08-28T09:00:33.255Z,2.83
2022-08-28T09:03:06.738Z,2.75
2022-08-28T09:06:03.895Z,2.67
2022-08-28T09:08:37.992Z,2.55
2022-08-28T09:11:22.069Z,2.78
2022-08-28T09:14:02.998Z,2.95
2022-08-28T09:16:38.377Z,2.90
2022-08-28T09:19:07.166Z,2.40
2022-08-28T09:21:38.978Z,2.70
2022-08-28T09:24:11.981Z,2.80
2022-08-28T09:26:40.361Z,2.63
2022-08-28T09:29:16.614Z,2.60
2022-08-28T09:31:44.362Z,3.00
2022-08-28T09:34:24.406Z,3.22
2022-08-28T09:36:53.593Z,2.92
2022-08-28T09:39:22.026Z,2.28
2022-08-28T09:42:16.003Z,2.80
2022-08-28T09:44:51.925Z,2.70
2022-08-28T09:47:46.978Z,2.83
2022-08-28T09:50:25.427Z,2.47
2022-08-28T09:52:55.392Z,2.90
2022-08-28T09:55:38.562Z,2.92
2022-08-28T09:58:06.681Z,2.53
2022-08-28T10:00:38.074Z,3.17
2022-08-28T10:03:20.498Z,2.80
2022-08-28T10:05:50.028Z,2.53
2022-08-28T10:08:47.385Z,2.78
2022-08-28T10:11:31.646Z,2.70
2022-08-28T10:14:13.285Z,2.92
2022-08-28T10:16:58.389Z,3.20
2022-08-28T10:19:53.027Z,2.60
2022-08-28T10:22:51.203Z,2.75
2022-08-28T10:25:22.054Z,3.42
2022-08-28T10:27:48.986Z,2.50
2022-08-28T10:30:21.707Z,2.75
2022-08-28T10:33:08.363Z,3.00
2022-08-28T10:36:06.743Z,2.65
2022-08-28T10:38:47.272Z,2.83
2022-08-28T10:41:23.835Z,2.60
2022-08-28T10:43:54.133Z,2.50
2022-08-28T10:46:30.577Z,2.85
2022-08-28T10:49:18.817Z,2.92
2022-08-28T10:52:00.795Z,2.50
2022-08-28T10:54:34.986Z,2.40
2022-08-28T10:57:23.119Z,2.90
2022-08-28T10:59:53.057Z,2.42
2022-08-28T11:02:25.606Z,2.40
2022-08-28T11:04:58.359Z,2.53
2022-08-28T11:07:51.472Z,2.60
2022-08-28T11:10:32.860Z,2.75
2022-08-28T11:13:00.436Z,2.50
2022-08-28T11:15:31.500Z,2.30
2022-08-28T11:18:18.917Z,2.58
2022-08-28T11:21:02.043Z,3.00
2022-08-28T11:23:49.464Z,2.30
2022-08-28T11:26:34.138Z,2.88
2022-08-28T11:29:04.281Z,2.75
2022-08-28T11:31:34.638Z,2.28
2022-08-28T11:34:02.829Z,2.75
2022-08-28T11:36:30.040Z,2.65
2022-08-28T11:38:57.663Z,2.35
2022-08-28T11:41:27.457Z,2.38
2022-08-28T11:44:09.465Z,2.85
2022-08-28T11:47:16.496Z,2.33
2022-08-28T11:49:45.302Z,2.10
2022-08-28T11:52:51.388Z,2.25
2022-08-28T11:55:45.559Z,2.40
2022-08-28T11:58:23.203Z,2.65
2022-08-28T12:01:17.558Z,2.17
2022-08-28T12:03:59.256Z,2.65
2022-08-28T12:06:45.023Z,2.20
2022-08-28T12:09:26.619Z,2.75
2022-08-28T12:12:02.974Z,2.63
2022-08-28T12:14:29.775Z,2.08
2022-08-28T12:16:59.562Z,2.05
2022-08-28T12:19:29.541Z,2.40
2022-08-28T12:21:56.882Z,2.05
2022-08-28T12:24:24.454Z,2.28
2022-08-28T12:26:57.048Z,2.63
2022-08-28T12:29:46.401Z,2.63
2022-08-28T12:32:22.130Z,2.40
2022-08-28T12:34:58.407Z,2.83
2022-08-28T12:37:39.898Z,2.15
2022-08-28T12:40:22.335Z,2.30
2022-08-28T12:42:55.449Z,2.17
2022-08-28T12:45:40.632Z,2.38
2022-08-28T12:48:27.910Z,2.38
2022-08-28T12:51:03.186Z,2.17
2022-08-28T12:53:38.975Z,2.65
2022-08-28T12:56:07.593Z,2.28
2022-08-28T12:58:37.177Z,2.40
2022-08-28T13:01:14.555Z,2.30
2022-08-28T13:04:29.864Z,2.10
2022-08-28T13:07:18.536Z,2.55
2022-08-28T13:09:51.473Z,2.40
2022-08-28T13:12:22.516Z,2.38
2022-08-28T13:15:02.418Z,1.83
2022-08-28T13:17:50.023Z,2.35
2022-08-28T13:20:32.325Z,2.03
2022-08-28T13:23:00.333Z,2.45
2022-08-28T13:25:31.086Z,2.05
2022-08-28T13:28:04.746Z,2.00
2022-08-28T13:30:35.261Z,2.10
2022-08-28T13:33:20.764Z,2.22
2022-08-28T13:38:18.007Z,1.95
2022-08-28T13:40:59.391Z,2.30
2022-08-28T13:43:29.522Z,2.00
2022-08-28T13:45:56.510Z,1.85
2022-08-28T13:48:27.794Z,2.38
2022-08-28T13:51:03.167Z,2.10
2022-08-28T13:53:32.178Z,2.00
2022-08-28T13:56:00.334Z,2.10
2022-08-28T13:58:29.664Z,2.47
2022-08-28T14:00:56.942Z,2.13
2022-08-28T14:03:36.007Z,2.42
2022-08-28T14:06:07.360Z,2.22
2022-08-28T14:08:34.665Z,2.15
2022-08-28T14:11:01.737Z,2.13
2022-08-28T14:13:28.732Z,2.13
2022-08-28T14:15:56.747Z,2.38
2022-08-28T14:18:25.301Z,2.20
2022-08-28T14:20:52.716Z,2.20
2022-08-28T14:23:19.574Z,2.38
2022-08-28T14:25:47.498Z,2.33
2022-08-28T14:28:20.135Z,2.30
2022-08-28T14:30:49.772Z,2.45
2022-08-28T14:33:20.804Z,2.22
2022-08-28T14:35:48.975Z,2.40
2022-08-28T14:38:15.920Z,2.13
2022-08-28T14:40:44.514Z,1.98
2022-08-28T14:43:13.746Z,1.95
2022-08-28T14:45:50.189Z,1.90
2022-08-28T14:48:18.528Z,2.20
2022-08-28T14:50:48.221Z,2.08
2022-08-28T14:53:15.809Z,2.33
2022-08-28T14:55:50.284Z,2.00
2022-08-28T14:58:18.688Z,2.22
2022-08-28T15:00:50.220Z,2.05
2022-08-28T15:03:18.734Z,2.20
2022-08-28T15:05:46.590Z,2.00
2022-08-28T15:08:19.350Z,2.03
2022-08-28T15:10:48.623Z,2.03
2022-08-28T15:13:15.512Z,2.33
2022-08-28T15:15:42.657Z,1.90
2022-08-28T15:18:10.667Z,2.17
2022-08-28T15:20:46.935Z,2.00
2022-08-28T15:23:15.420Z,2.17
2022-08-28T15:25:42.533Z,2.22
2022-08-28T15:28:09.715Z,1.95
2022-08-28T15:30:37.397Z,2.28
2022-08-28T15:33:06.986Z,1.92
2022-08-28T15:35:35.534Z,2.35
2022-08-28T15:38:02.616Z,2.38
2022-08-28T15:40:48.894Z,2.17
2022-08-28T15:43:16.172Z,2.10
2022-08-28T15:45:43.350Z,1.98
2022-08-28T15:48:11.566Z,2.10
2022-08-28T15:50:38.666Z,2.00
2022-08-28T15:53:11.871Z,1.92
2022-08-28T15:55:38.872Z,2.30
2022-08-28T15:58:13.595Z,2.13
2022-08-28T16:00:41.435Z,2.45
2022-08-28T16:03:08.458Z,2.13
2022-08-28T16:05:39.615Z,2.63
2022-08-28T16:08:09.279Z,2.30
2022-08-28T16:10:36.708Z,2.20
2022-08-28T16:13:06.541Z,2.50
2022-08-28T16:15:34.057Z,2.35
2022-08-28T16:18:00.961Z,2.38
2022-08-28T16:20:27.799Z,3.20
2022-08-28T16:23:00.885Z,2.40
2022-08-28T16:25:28.083Z,2.20
2022-08-28T16:27:55.155Z,2.75
2022-08-28T16:30:24.292Z,2.28
2022-08-28T16:32:51.757Z,2.40
2022-08-28T16:35:21.456Z,2.40
2022-08-28T16:37:48.797Z,2.65
2022-08-28T16:40:15.856Z,2.42
2022-08-28T16:42:51.248Z,2.35
2022-08-28T16:45:19.452Z,2.83
2022-08-28T16:47:46.393Z,2.67
2022-08-28T16:50:14.258Z,2.63
2022-08-28T16:52:41.543Z,2.47
2022-08-28T16:55:10.448Z,2.55
2022-08-28T16:57:38.387Z,2.35
2022-08-28T17:00:08.191Z,2.55
2022-08-28T17:02:36.233Z,2.30
2022-08-28T17:05:04.126Z,2.65
2022-08-28T17:07:31.218Z,2.53
2022-08-28T17:09:58.966Z,2.58
2022-08-28T17:12:25.961Z,2.80
2022-08-28T17:14:52.848Z,2.70
2022-08-28T17:17:19.937Z,2.72
2022-08-28T17:19:46.924Z,3.03
2022-08-28T17:22:32.444Z,2.75
2022-08-28T17:25:07.480Z,3.10
2022-08-28T17:27:36.686Z,3.08
2022-08-28T17:30:05.082Z,3.20
2022-08-28T17:32:32.429Z,3.00
2022-08-28T17:35:00.228Z,2.60
2022-08-28T17:37:27.126Z,2.88
2022-08-28T17:39:54.424Z,2.50
2022-08-28T17:42:21.402Z,2.53
2022-08-28T17:44:48.505Z,2.97
2022-08-28T17:47:15.617Z,3.38
2022-08-28T17:49:44.806Z,2.78
2022-08-28T17:52:11.717Z,2.65
2022-08-28T17:54:38.583Z,2.97
2022-08-28T17:57:05.763Z,3.67
2022-08-28T17:59:33.158Z,3.38
2022-08-28T18:02:01.565Z,3.15
2022-08-28T18:04:29.143Z,2.90
2022-08-28T18:06:56.200Z,3.38
2022-08-28T18:09:23.822Z,3.40
2022-08-28T18:11:51.998Z,3.25
2022-08-28T18:14:19.252Z,4.28
2022-08-28T18:16:46.819Z,3.50
2022-08-28T18:19:13.784Z,4.13
2022-08-28T18:21:41.209Z,4.10
2022-08-28T18:24:10.405Z,3.88
2022-08-28T18:26:37.525Z,4.05
2022-08-28T18:29:05.901Z,5.00
2022-08-28T18:31:32.999Z,4.82
2022-08-28T18:34:00.563Z,4.60
2022-08-28T18:36:27.770Z,5.25
2022-08-28T18:38:54.678Z,4.43
2022-08-28T18:41:26.963Z,4.50
2022-08-28T18:44:09.391Z,4.82
2022-08-28T18:46:36.549Z,5.10
2022-08-28T18:49:03.817Z,4.88
2022-08-28T18:51:32.530Z,5.53
2022-08-28T18:54:03.646Z,5.05
2022-08-28T18:56:33.604Z,4.78
2022-08-28T18:59:05.270Z,4.30
2022-08-28T19:01:32.544Z,5.47
2022-08-28T19:03:59.747Z,5.55
2022-08-28T19:06:26.986Z,4.63
2022-08-28T19:08:54.245Z,5.20
2022-08-28T19:11:21.537Z,5.50
2022-08-28T19:13:48.822Z,4.97
2022-08-28T19:16:18.165Z,5.00
2022-08-28T19:18:46.273Z,5.38
2022-08-28T19:21:17.828Z,5.25
2022-08-28T19:23:55.486Z,4.97
2022-08-28T19:26:24.836Z,5.07
2022-08-28T19:28:52.298Z,4.85
2022-08-28T19:31:19.523Z,4.93
2022-08-28T19:33:47.944Z,5.00
2022-08-28T19:36:15.366Z,5.35
2022-08-28T19:38:42.950Z,4.90
2022-08-28T19:41:11.821Z,5.78
2022-08-28T19:43:44.204Z,5.35
2022-08-28T19:46:20.190Z,5.25
2022-08-28T19:48:51.939Z,5.32
2022-08-28T19:51:23.374Z,5.22
2022-08-28T19:53:58.189Z,5.32
2022-08-28T19:56:27.866Z,5.68
2022-08-28T19:58:59.355Z,5.53
2022-08-28T20:01:32.921Z,5.18
2022-08-28T20:04:00.389Z,4.72
2022-08-28T20:06:30.527Z,4.80
2022-08-28T20:08:57.617Z,5.18
2022-08-28T20:11:30.398Z,5.20
2022-08-28T20:14:04.441Z,4.97
2022-08-28T20:16:35.178Z,5.03
2022-08-28T20:19:04.117Z,4.72
2022-08-28T20:21:37.681Z,5.30
2022-08-28T20:24:14.448Z,4.60
2022-08-28T20:26:42.233Z,4.40
2022-08-28T20:29:10.235Z,5.18
2022-08-28T20:31:43.870Z,4.82
2022-08-28T20:34:12.391Z,5.13
2022-08-28T20:36:39.444Z,4.47
2022-08-28T20:39:09.611Z,4.78
2022-08-28T20:41:38.790Z,4.53
2022-08-28T20:44:07.910Z,5.40
2022-08-28T20:46:40.480Z,5.20
2022-08-28T20:49:12.262Z,4.78
2022-08-28T20:51:59.179Z,4.75
2022-08-28T20:54:30.431Z,4.85
2022-08-28T20:57:00.270Z,4.95
2022-08-28T20:59:34.409Z,5.07
2022-08-28T21:02:10.474Z,4.82
2022-08-28T21:04:39.496Z,5.25
2022-08-28T21:07:06.519Z,4.50
2022-08-28T21:10:03.783Z,4.72
2022-08-28T21:12:21.547Z,5.32
2022-08-28T21:14:53.631Z,4.65
2022-08-28T21:17:28.822Z,5.25
2022-08-28T21:20:04.113Z,4.60
2022-08-28T21:22:31.797Z,5.47
2022-08-28T21:24:59.820Z,4.93
2022-08-28T21:27:27.074Z,5.28
2022-08-28T21:29:58.630Z,5.18
2022-08-28T21:32:29.108Z,4.47
2022-08-28T21:34:56.218Z,4.45
2022-08-28T21:37:23.571Z,5.13
2022-08-28T21:39:50.940Z,4.40
2022-08-28T21:42:18.141Z,4.65
2022-08-28T21:44:51.201Z,5.05
2022-08-28T21:47:21.530Z,4.80
2022-08-28T21:49:50.177Z,5.55
2022-08-28T21:52:18.621Z,4.75
2022-08-28T21:54:45.773Z,4.32
2022-08-28T21:57:12.766Z,4.97
2022-08-28T21:59:40.106Z,5.05
2022-08-28T22:02:07.451Z,4.72
2022-08-28T22:04:34.998Z,4.43
2022-08-28T22:07:02.343Z,4.45
2022-08-28T22:09:29.587Z,5.10
2022-08-28T22:11:56.869Z,4.40
2022-08-28T22:14:25.157Z,4.07
2022-08-28T22:16:52.185Z,4.35
2022-08-28T22:19:19.062Z,4.78
2022-08-28T22:22:04.191Z,4.18
2022-08-28T22:24:31.146Z,4.35
2022-08-28T22:26:58.071Z,4.45
2022-08-28T22:29:25.707Z,4.10
2022-08-28T22:31:52.978Z,4.72
2022-08-28T22:34:20.726Z,4.00
2022-08-28T22:36:47.685Z,3.92
2022-08-28T22:39:14.543Z,4.63
2022-08-28T22:41:42.122Z,4.15
2022-08-28T22:44:09.980Z,5.18
2022-08-28T22:46:36.945Z,3.90
2022-08-28T22:49:04.456Z,4.90
2022-08-28T22:51:33.608Z,4.40
2022-08-28T22:54:00.782Z,4.50
2022-08-28T22:56:27.604Z,4.03
2022-08-28T22:58:54.627Z,4.00
2022-08-28T23:01:24.915Z,4.18
2022-08-28T23:03:52.098Z,4.28
2022-08-28T23:06:21.465Z,4.30
2022-08-28T23:08:48.883Z,4.00
2022-08-28T23:11:15.891Z,5.10
2022-08-28T23:13:42.828Z,4.47
2022-08-28T23:16:10.733Z,4.30
2022-08-28T23:19:06.580Z,4.72
2022-08-28T23:21:28.440Z,4.40
2022-08-28T23:23:56.448Z,4.30
2022-08-28T23:26:23.752Z,5.13
2022-08-28T23:28:50.934Z,4.55
2022-08-28T23:31:18.016Z,4.60
2022-08-28T23:33:45.509Z,4.22
2022-08-28T23:36:12.617Z,4.28
2022-08-28T23:38:43.015Z,3.78
2022-08-28T23:41:10.786Z,4.28
2022-08-28T23:43:37.793Z,4.00
2022-08-28T23:46:05.343Z,3.65
2022-08-28T23:48:33.058Z,4.45
2022-08-28T23:51:00.159Z,3.78
2022-08-28T23:53:27.468Z,4.05
2022-08-28T23:55:54.326Z,4.15
2022-08-28T23:58:22.478Z,4.05
